sensor_id;sensor_type;location;lat;lon;timestamp;temperature;humidity
30648;DHT22;17683;53.360;9.736;2022-07-24T00:01:49;13.20;99.90
30648;DHT22;17683;53.360;9.736;2022-07-24T00:04:14;13.20;99.90
30648;DHT22;17683;53.360;9.736;2022-07-24T00:06:40;13.10;99.90
30648;DHT22;17683;53.360;9.736;2022-07-24T00:09:06;13.10;99.90
30648;DHT22;17683;53.360;9.736;2022-07-24T00:11:32;13.10;99.90
30648;DHT22;17683;53.360;9.736;2022-07-24T00:13:58;13.10;99.90
30648;DHT22;17683;53.360;9.736;2022-07-24T00:16:24;13.00;99.90
30648;DHT22;17683;53.360;9.736;2022-07-24T00:18:50;13.00;99.90
30648;DHT22;17683;53.360;9.736;2022-07-24T00:21:15;13.00;99.90
30648;DHT22;17683;53.360;9.736;2022-07-24T00:23:41;13.00;99.90
30648;DHT22;17683;53.360;9.736;2022-07-24T00:26:09;13.00;99.90
30648;DHT22;17683;53.360;9.736;2022-07-24T00:28:35;12.90;99.90
30648;DHT22;17683;53.360;9.736;2022-07-24T00:31:01;12.90;99.90
30648;DHT22;17683;53.360;9.736;2022-07-24T00:33:27;12.90;99.90
30648;DHT22;17683;53.360;9.736;2022-07-24T00:35:52;12.90;99.90
30648;DHT22;17683;53.360;9.736;2022-07-24T00:38:18;12.80;99.90
30648;DHT22;17683;53.360;9.736;2022-07-24T00:40:44;12.80;99.90
30648;DHT22;17683;53.360;9.736;2022-07-24T00:43:10;12.80;99.90
30648;DHT22;17683;53.360;9.736;2022-07-24T00:45:36;12.80;99.90
30648;DHT22;17683;53.360;9.736;2022-07-24T00:48:02;12.80;99.90
30648;DHT22;17683;53.360;9.736;2022-07-24T00:50:28;12.70;99.90
30648;DHT22;17683;53.360;9.736;2022-07-24T00:52:55;12.70;99.90
30648;DHT22;17683;53.360;9.736;2022-07-24T00:55:22;12.70;99.90
30648;DHT22;17683;53.360;9.736;2022-07-24T00:57:47;12.70;99.90
30648;DHT22;17683;53.360;9.736;2022-07-24T01:00:16;12.60;99.90
30648;DHT22;17683;53.360;9.736;2022-07-24T01:02:42;12.60;99.90
30648;DHT22;17683;53.360;9.736;2022-07-24T01:05:09;12.60;99.90
30648;DHT22;17683;53.360;9.736;2022-07-24T01:07:35;12.60;99.90
30648;DHT22;17683;53.360;9.736;2022-07-24T01:10:02;12.50;99.90
30648;DHT22;17683;53.360;9.736;2022-07-24T01:12:29;12.50;99.90
30648;DHT22;17683;53.360;9.736;2022-07-24T01:14:55;12.60;99.90
30648;DHT22;17683;53.360;9.736;2022-07-24T01:17:21;12.50;99.90
30648;DHT22;17683;53.360;9.736;2022-07-24T01:19:46;12.50;99.90
30648;DHT22;17683;53.360;9.736;2022-07-24T01:22:12;12.50;99.90
30648;DHT22;17683;53.360;9.736;2022-07-24T01:24:38;12.50;99.90
30648;DHT22;17683;53.360;9.736;2022-07-24T01:27:04;12.40;99.90
30648;DHT22;17683;53.360;9.736;2022-07-24T01:29:29;12.40;99.90
30648;DHT22;17683;53.360;9.736;2022-07-24T01:31:55;12.40;99.90
30648;DHT22;17683;53.360;9.736;2022-07-24T01:34:21;12.40;99.90
30648;DHT22;17683;53.360;9.736;2022-07-24T01:36:46;12.40;99.90
30648;DHT22;17683;53.360;9.736;2022-07-24T01:39:12;12.30;99.90
30648;DHT22;17683;53.360;9.736;2022-07-24T01:41:38;12.30;99.90
30648;DHT22;17683;53.360;9.736;2022-07-24T01:44:04;12.30;99.90
30648;DHT22;17683;53.360;9.736;2022-07-24T01:46:29;12.30;99.90
30648;DHT22;17683;53.360;9.736;2022-07-24T01:48:55;12.30;99.90
30648;DHT22;17683;53.360;9.736;2022-07-24T01:51:21;12.30;99.90
30648;DHT22;17683;53.360;9.736;2022-07-24T01:53:46;12.20;99.90
30648;DHT22;17683;53.360;9.736;2022-07-24T01:56:12;12.20;99.90
30648;DHT22;17683;53.360;9.736;2022-07-24T01:58:38;12.20;99.90
30648;DHT22;17683;53.360;9.736;2022-07-24T02:01:05;12.20;99.90
30648;DHT22;17683;53.360;9.736;2022-07-24T02:03:31;12.20;99.90
30648;DHT22;17683;53.360;9.736;2022-07-24T02:05:57;12.10;99.90
30648;DHT22;17683;53.360;9.736;2022-07-24T02:08:22;12.10;99.90
30648;DHT22;17683;53.360;9.736;2022-07-24T02:10:48;12.10;99.90
30648;DHT22;17683;53.360;9.736;2022-07-24T02:13:14;12.10;99.90
30648;DHT22;17683;53.360;9.736;2022-07-24T02:15:39;12.10;99.90
30648;DHT22;17683;53.360;9.736;2022-07-24T02:18:05;12.00;99.90
30648;DHT22;17683;53.360;9.736;2022-07-24T02:20:31;12.00;99.90
30648;DHT22;17683;53.360;9.736;2022-07-24T02:22:57;12.00;99.90
30648;DHT22;17683;53.360;9.736;2022-07-24T02:25:22;12.00;99.90
30648;DHT22;17683;53.360;9.736;2022-07-24T02:27:48;12.00;99.90
30648;DHT22;17683;53.360;9.736;2022-07-24T02:30:16;12.00;99.90
30648;DHT22;17683;53.360;9.736;2022-07-24T02:32:43;12.00;99.90
30648;DHT22;17683;53.360;9.736;2022-07-24T02:35:09;11.90;99.90
30648;DHT22;17683;53.360;9.736;2022-07-24T02:37:40;11.90;99.90
30648;DHT22;17683;53.360;9.736;2022-07-24T02:40:07;11.90;99.90
30648;DHT22;17683;53.360;9.736;2022-07-24T02:42:35;11.90;99.90
30648;DHT22;17683;53.360;9.736;2022-07-24T02:45:01;11.90;99.90
30648;DHT22;17683;53.360;9.736;2022-07-24T02:47:27;11.90;99.90
30648;DHT22;17683;53.360;9.736;2022-07-24T02:49:53;11.90;99.90
30648;DHT22;17683;53.360;9.736;2022-07-24T02:52:19;11.90;99.90
30648;DHT22;17683;53.360;9.736;2022-07-24T02:54:44;11.80;99.90
30648;DHT22;17683;53.360;9.736;2022-07-24T02:57:10;11.80;99.90
30648;DHT22;17683;53.360;9.736;2022-07-24T02:59:36;11.80;99.90
30648;DHT22;17683;53.360;9.736;2022-07-24T03:02:02;11.80;99.90
30648;DHT22;17683;53.360;9.736;2022-07-24T03:04:27;11.80;99.90
30648;DHT22;17683;53.360;9.736;2022-07-24T03:06:53;11.80;99.90
30648;DHT22;17683;53.360;9.736;2022-07-24T03:09:19;11.80;99.90
30648;DHT22;17683;53.360;9.736;2022-07-24T03:11:44;11.80;99.90
30648;DHT22;17683;53.360;9.736;2022-07-24T03:14:10;11.80;99.90
30648;DHT22;17683;53.360;9.736;2022-07-24T03:16:36;11.80;99.90
30648;DHT22;17683;53.360;9.736;2022-07-24T03:19:02;11.80;99.90
30648;DHT22;17683;53.360;9.736;2022-07-24T03:21:28;11.80;99.90
30648;DHT22;17683;53.360;9.736;2022-07-24T03:23:54;11.80;99.90
30648;DHT22;17683;53.360;9.736;2022-07-24T03:26:19;11.80;99.90
30648;DHT22;17683;53.360;9.736;2022-07-24T03:28:45;11.80;99.90
30648;DHT22;17683;53.360;9.736;2022-07-24T03:31:12;11.80;99.90
30648;DHT22;17683;53.360;9.736;2022-07-24T03:33:37;11.90;99.90
30648;DHT22;17683;53.360;9.736;2022-07-24T03:36:03;11.80;99.90
30648;DHT22;17683;53.360;9.736;2022-07-24T03:38:29;11.90;99.90
30648;DHT22;17683;53.360;9.736;2022-07-24T03:40:55;11.80;99.90
30648;DHT22;17683;53.360;9.736;2022-07-24T03:43:20;11.80;99.90
30648;DHT22;17683;53.360;9.736;2022-07-24T03:45:46;11.80;99.90
30648;DHT22;17683;53.360;9.736;2022-07-24T03:48:12;11.80;99.90
30648;DHT22;17683;53.360;9.736;2022-07-24T03:50:38;11.80;99.90
30648;DHT22;17683;53.360;9.736;2022-07-24T03:53:03;11.80;99.90
30648;DHT22;17683;53.360;9.736;2022-07-24T03:55:29;11.80;99.90
30648;DHT22;17683;53.360;9.736;2022-07-24T03:57:55;11.90;99.90
30648;DHT22;17683;53.360;9.736;2022-07-24T04:00:20;11.90;99.90
30648;DHT22;17683;53.360;9.736;2022-07-24T04:02:46;11.90;99.90
30648;DHT22;17683;53.360;9.736;2022-07-24T04:05:12;11.90;99.90
30648;DHT22;17683;53.360;9.736;2022-07-24T04:07:39;11.90;99.90
30648;DHT22;17683;53.360;9.736;2022-07-24T04:10:06;12.00;99.90
30648;DHT22;17683;53.360;9.736;2022-07-24T04:12:33;12.00;99.90
30648;DHT22;17683;53.360;9.736;2022-07-24T04:14:59;12.00;99.90
30648;DHT22;17683;53.360;9.736;2022-07-24T04:17:25;12.00;99.90
30648;DHT22;17683;53.360;9.736;2022-07-24T04:19:50;12.00;99.90
30648;DHT22;17683;53.360;9.736;2022-07-24T04:22:16;12.00;99.90
30648;DHT22;17683;53.360;9.736;2022-07-24T04:24:42;12.10;99.90
30648;DHT22;17683;53.360;9.736;2022-07-24T04:27:08;12.10;99.90
30648;DHT22;17683;53.360;9.736;2022-07-24T04:29:34;12.10;99.90
30648;DHT22;17683;53.360;9.736;2022-07-24T04:31:59;12.10;99.90
30648;DHT22;17683;53.360;9.736;2022-07-24T04:34:25;12.10;99.90
30648;DHT22;17683;53.360;9.736;2022-07-24T04:36:51;12.20;99.90
30648;DHT22;17683;53.360;9.736;2022-07-24T04:39:17;12.20;99.90
30648;DHT22;17683;53.360;9.736;2022-07-24T04:41:43;12.20;99.90
30648;DHT22;17683;53.360;9.736;2022-07-24T04:44:09;12.20;99.90
30648;DHT22;17683;53.360;9.736;2022-07-24T04:46:34;12.20;99.90
30648;DHT22;17683;53.360;9.736;2022-07-24T04:49:00;12.20;99.90
30648;DHT22;17683;53.360;9.736;2022-07-24T04:51:26;12.30;99.90
30648;DHT22;17683;53.360;9.736;2022-07-24T04:53:51;12.30;99.90
30648;DHT22;17683;53.360;9.736;2022-07-24T04:56:21;12.30;99.90
30648;DHT22;17683;53.360;9.736;2022-07-24T04:58:46;12.30;99.90
30648;DHT22;17683;53.360;9.736;2022-07-24T05:01:13;12.40;99.90
30648;DHT22;17683;53.360;9.736;2022-07-24T05:03:39;12.40;99.90
30648;DHT22;17683;53.360;9.736;2022-07-24T05:06:05;12.50;99.90
30648;DHT22;17683;53.360;9.736;2022-07-24T05:08:31;12.60;99.90
30648;DHT22;17683;53.360;9.736;2022-07-24T05:10:57;12.60;99.90
30648;DHT22;17683;53.360;9.736;2022-07-24T05:13:22;12.70;99.90
30648;DHT22;17683;53.360;9.736;2022-07-24T05:15:48;12.70;99.90
30648;DHT22;17683;53.360;9.736;2022-07-24T05:18:14;12.80;99.90
30648;DHT22;17683;53.360;9.736;2022-07-24T05:20:39;12.90;99.90
30648;DHT22;17683;53.360;9.736;2022-07-24T05:23:05;13.00;99.90
30648;DHT22;17683;53.360;9.736;2022-07-24T05:25:31;13.10;99.90
30648;DHT22;17683;53.360;9.736;2022-07-24T05:27:57;13.20;99.90
30648;DHT22;17683;53.360;9.736;2022-07-24T05:30:22;13.30;99.90
30648;DHT22;17683;53.360;9.736;2022-07-24T05:32:48;13.40;99.90
30648;DHT22;17683;53.360;9.736;2022-07-24T05:35:14;13.60;99.90
30648;DHT22;17683;53.360;9.736;2022-07-24T05:37:40;13.70;99.90
30648;DHT22;17683;53.360;9.736;2022-07-24T05:40:06;13.90;99.90
30648;DHT22;17683;53.360;9.736;2022-07-24T05:42:32;14.10;99.90
30648;DHT22;17683;53.360;9.736;2022-07-24T05:44:57;14.30;99.90
30648;DHT22;17683;53.360;9.736;2022-07-24T05:47:23;14.50;99.90
30648;DHT22;17683;53.360;9.736;2022-07-24T05:49:49;14.70;99.90
30648;DHT22;17683;53.360;9.736;2022-07-24T05:52:14;15.00;99.90
30648;DHT22;17683;53.360;9.736;2022-07-24T05:54:40;15.30;99.90
30648;DHT22;17683;53.360;9.736;2022-07-24T05:57:06;15.60;99.90
30648;DHT22;17683;53.360;9.736;2022-07-24T05:59:31;15.80;99.90
30648;DHT22;17683;53.360;9.736;2022-07-24T06:01:57;16.00;99.90
30648;DHT22;17683;53.360;9.736;2022-07-24T06:04:25;16.30;99.90
30648;DHT22;17683;53.360;9.736;2022-07-24T06:06:51;16.50;99.90
30648;DHT22;17683;53.360;9.736;2022-07-24T06:09:16;16.60;99.90
30648;DHT22;17683;53.360;9.736;2022-07-24T06:11:42;16.80;99.90
30648;DHT22;17683;53.360;9.736;2022-07-24T06:14:08;17.00;99.90
30648;DHT22;17683;53.360;9.736;2022-07-24T06:16:33;17.10;99.90
30648;DHT22;17683;53.360;9.736;2022-07-24T06:18:59;17.20;99.90
30648;DHT22;17683;53.360;9.736;2022-07-24T06:21:25;17.30;99.90
30648;DHT22;17683;53.360;9.736;2022-07-24T06:23:52;17.30;99.90
30648;DHT22;17683;53.360;9.736;2022-07-24T06:26:17;17.40;99.90
30648;DHT22;17683;53.360;9.736;2022-07-24T06:28:43;17.50;99.90
30648;DHT22;17683;53.360;9.736;2022-07-24T06:31:09;17.60;99.90
30648;DHT22;17683;53.360;9.736;2022-07-24T06:33:34;17.70;99.90
30648;DHT22;17683;53.360;9.736;2022-07-24T06:36:00;17.90;99.90
30648;DHT22;17683;53.360;9.736;2022-07-24T06:38:26;18.00;99.90
30648;DHT22;17683;53.360;9.736;2022-07-24T06:40:52;18.20;99.90
30648;DHT22;17683;53.360;9.736;2022-07-24T06:43:17;18.40;99.90
30648;DHT22;17683;53.360;9.736;2022-07-24T06:45:43;18.60;99.90
30648;DHT22;17683;53.360;9.736;2022-07-24T06:48:09;18.80;99.90
30648;DHT22;17683;53.360;9.736;2022-07-24T06:50:35;18.90;99.90
30648;DHT22;17683;53.360;9.736;2022-07-24T06:53:01;19.10;99.90
30648;DHT22;17683;53.360;9.736;2022-07-24T06:55:26;19.20;99.90
30648;DHT22;17683;53.360;9.736;2022-07-24T06:57:52;19.40;99.90
30648;DHT22;17683;53.360;9.736;2022-07-24T07:00:18;19.50;99.90
30648;DHT22;17683;53.360;9.736;2022-07-24T07:02:44;19.80;99.90
30648;DHT22;17683;53.360;9.736;2022-07-24T07:05:11;20.00;99.90
30648;DHT22;17683;53.360;9.736;2022-07-24T07:07:37;20.20;99.90
30648;DHT22;17683;53.360;9.736;2022-07-24T07:10:05;20.30;99.90
30648;DHT22;17683;53.360;9.736;2022-07-24T07:12:31;20.40;99.90
30648;DHT22;17683;53.360;9.736;2022-07-24T07:14:57;20.50;99.90
30648;DHT22;17683;53.360;9.736;2022-07-24T07:17:25;20.60;99.90
30648;DHT22;17683;53.360;9.736;2022-07-24T07:19:50;20.80;99.90
30648;DHT22;17683;53.360;9.736;2022-07-24T07:22:16;21.00;99.90
30648;DHT22;17683;53.360;9.736;2022-07-24T07:24:42;21.10;99.90
30648;DHT22;17683;53.360;9.736;2022-07-24T07:27:07;21.30;99.90
30648;DHT22;17683;53.360;9.736;2022-07-24T07:29:33;21.50;99.90
30648;DHT22;17683;53.360;9.736;2022-07-24T07:31:59;21.70;99.90
30648;DHT22;17683;53.360;9.736;2022-07-24T07:34:25;21.80;99.90
30648;DHT22;17683;53.360;9.736;2022-07-24T07:36:52;22.00;99.90
30648;DHT22;17683;53.360;9.736;2022-07-24T07:39:18;22.00;99.80
30648;DHT22;17683;53.360;9.736;2022-07-24T07:41:44;22.10;99.70
30648;DHT22;17683;53.360;9.736;2022-07-24T07:44:10;22.30;99.60
30648;DHT22;17683;53.360;9.736;2022-07-24T07:46:35;22.40;99.60
30648;DHT22;17683;53.360;9.736;2022-07-24T07:49:01;22.50;98.80
30648;DHT22;17683;53.360;9.736;2022-07-24T07:51:27;22.60;98.90
30648;DHT22;17683;53.360;9.736;2022-07-24T07:53:53;22.80;98.30
30648;DHT22;17683;53.360;9.736;2022-07-24T07:56:19;22.90;99.00
30648;DHT22;17683;53.360;9.736;2022-07-24T07:58:45;23.00;98.60
30648;DHT22;17683;53.360;9.736;2022-07-24T08:01:11;23.00;98.30
30648;DHT22;17683;53.360;9.736;2022-07-24T08:03:37;23.20;98.60
30648;DHT22;17683;53.360;9.736;2022-07-24T08:06:03;23.30;98.10
30648;DHT22;17683;53.360;9.736;2022-07-24T08:08:30;23.40;97.90
30648;DHT22;17683;53.360;9.736;2022-07-24T08:10:56;23.50;97.60
30648;DHT22;17683;53.360;9.736;2022-07-24T08:13:21;23.50;97.60
30648;DHT22;17683;53.360;9.736;2022-07-24T08:15:47;23.70;98.00
30648;DHT22;17683;53.360;9.736;2022-07-24T08:18:13;23.90;97.40
30648;DHT22;17683;53.360;9.736;2022-07-24T08:20:39;24.10;97.90
30648;DHT22;17683;53.360;9.736;2022-07-24T08:23:05;24.20;97.30
30648;DHT22;17683;53.360;9.736;2022-07-24T08:25:30;24.30;96.30
30648;DHT22;17683;53.360;9.736;2022-07-24T08:27:56;24.40;96.10
30648;DHT22;17683;53.360;9.736;2022-07-24T08:30:22;24.50;96.20
30648;DHT22;17683;53.360;9.736;2022-07-24T08:32:49;24.70;97.00
30648;DHT22;17683;53.360;9.736;2022-07-24T08:35:15;24.90;96.80
30648;DHT22;17683;53.360;9.736;2022-07-24T08:37:42;25.00;95.80
30648;DHT22;17683;53.360;9.736;2022-07-24T08:40:09;25.20;95.80
30648;DHT22;17683;53.360;9.736;2022-07-24T08:42:36;25.30;95.00
30648;DHT22;17683;53.360;9.736;2022-07-24T08:45:03;25.30;94.30
30648;DHT22;17683;53.360;9.736;2022-07-24T08:47:30;25.30;95.00
30648;DHT22;17683;53.360;9.736;2022-07-24T08:49:58;25.40;94.80
30648;DHT22;17683;53.360;9.736;2022-07-24T08:52:25;25.50;94.40
30648;DHT22;17683;53.360;9.736;2022-07-24T08:54:52;25.60;93.90
30648;DHT22;17683;53.360;9.736;2022-07-24T08:57:18;25.70;93.60
30648;DHT22;17683;53.360;9.736;2022-07-24T08:59:44;25.80;93.80
30648;DHT22;17683;53.360;9.736;2022-07-24T09:02:10;25.90;93.60
30648;DHT22;17683;53.360;9.736;2022-07-24T09:09:37;26.20;93.40
30648;DHT22;17683;53.360;9.736;2022-07-24T09:12:14;26.20;93.10
30648;DHT22;17683;53.360;9.736;2022-07-24T09:14:43;26.20;93.20
30648;DHT22;17683;53.360;9.736;2022-07-24T09:17:15;26.30;93.60
30648;DHT22;17683;53.360;9.736;2022-07-24T09:19:53;26.30;92.70
30648;DHT22;17683;53.360;9.736;2022-07-24T09:25:26;26.10;92.90
30648;DHT22;17683;53.360;9.736;2022-07-24T09:27:56;26.00;92.80
30648;DHT22;17683;53.360;9.736;2022-07-24T09:35:48;26.20;92.80
30648;DHT22;17683;53.360;9.736;2022-07-24T09:38:17;26.20;92.70
30648;DHT22;17683;53.360;9.736;2022-07-24T09:40:45;26.20;92.80
30648;DHT22;17683;53.360;9.736;2022-07-24T09:43:22;26.20;93.20
30648;DHT22;17683;53.360;9.736;2022-07-24T09:45:56;26.40;93.40
30648;DHT22;17683;53.360;9.736;2022-07-24T09:48:29;26.60;92.70
30648;DHT22;17683;53.360;9.736;2022-07-24T09:50:57;26.80;92.50
30648;DHT22;17683;53.360;9.736;2022-07-24T09:53:26;26.90;92.90
30648;DHT22;17683;53.360;9.736;2022-07-24T09:56:15;26.90;92.30
30648;DHT22;17683;53.360;9.736;2022-07-24T09:58:52;26.80;91.80
30648;DHT22;17683;53.360;9.736;2022-07-24T10:01:20;26.70;92.10
30648;DHT22;17683;53.360;9.736;2022-07-24T10:03:48;26.70;92.10
30648;DHT22;17683;53.360;9.736;2022-07-24T10:06:18;26.80;92.20
30648;DHT22;17683;53.360;9.736;2022-07-24T10:08:45;27.00;91.90
30648;DHT22;17683;53.360;9.736;2022-07-24T10:11:12;27.20;92.40
30648;DHT22;17683;53.360;9.736;2022-07-24T10:13:39;27.30;91.50
30648;DHT22;17683;53.360;9.736;2022-07-24T10:18:54;27.60;91.80
30648;DHT22;17683;53.360;9.736;2022-07-24T10:21:25;27.80;91.20
30648;DHT22;17683;53.360;9.736;2022-07-24T10:26:43;28.10;91.40
30648;DHT22;17683;53.360;9.736;2022-07-24T10:29:16;28.20;91.10
30648;DHT22;17683;53.360;9.736;2022-07-24T10:31:53;28.30;90.90
30648;DHT22;17683;53.360;9.736;2022-07-24T10:34:26;28.50;90.80
30648;DHT22;17683;53.360;9.736;2022-07-24T10:51:10;29.20;88.70
30648;DHT22;17683;53.360;9.736;2022-07-24T10:59:03;29.20;88.10
30648;DHT22;17683;53.360;9.736;2022-07-24T11:01:44;29.20;88.40
30648;DHT22;17683;53.360;9.736;2022-07-24T11:07:12;29.30;89.80
30648;DHT22;17683;53.360;9.736;2022-07-24T11:10:01;29.40;90.00
30648;DHT22;17683;53.360;9.736;2022-07-24T11:12:33;29.40;87.70
30648;DHT22;17683;53.360;9.736;2022-07-24T11:15:03;29.50;88.20
30648;DHT22;17683;53.360;9.736;2022-07-24T11:17:48;29.50;88.00
30648;DHT22;17683;53.360;9.736;2022-07-24T11:20:19;29.50;86.60
30648;DHT22;17683;53.360;9.736;2022-07-24T11:22:53;29.50;88.50
30648;DHT22;17683;53.360;9.736;2022-07-24T11:25:27;29.50;89.00
30648;DHT22;17683;53.360;9.736;2022-07-24T11:27:58;29.50;88.20
30648;DHT22;17683;53.360;9.736;2022-07-24T11:30:29;29.50;88.00
30648;DHT22;17683;53.360;9.736;2022-07-24T11:32:56;29.60;88.80
30648;DHT22;17683;53.360;9.736;2022-07-24T11:35:35;29.60;88.60
30648;DHT22;17683;53.360;9.736;2022-07-24T11:38:05;29.70;89.10
30648;DHT22;17683;53.360;9.736;2022-07-24T11:40:32;29.70;87.50
30648;DHT22;17683;53.360;9.736;2022-07-24T11:43:01;29.60;87.70
30648;DHT22;17683;53.360;9.736;2022-07-24T11:45:27;29.60;87.50
30648;DHT22;17683;53.360;9.736;2022-07-24T11:47:53;29.50;86.40
30648;DHT22;17683;53.360;9.736;2022-07-24T11:50:23;29.40;87.20
30648;DHT22;17683;53.360;9.736;2022-07-24T11:52:49;29.50;87.70
30648;DHT22;17683;53.360;9.736;2022-07-24T11:55:17;29.60;87.00
30648;DHT22;17683;53.360;9.736;2022-07-24T11:57:45;29.60;87.50
30648;DHT22;17683;53.360;9.736;2022-07-24T12:00:18;29.50;87.60
30648;DHT22;17683;53.360;9.736;2022-07-24T12:03:02;29.50;87.20
30648;DHT22;17683;53.360;9.736;2022-07-24T12:05:34;29.50;87.10
30648;DHT22;17683;53.360;9.736;2022-07-24T12:08:02;29.50;87.90
30648;DHT22;17683;53.360;9.736;2022-07-24T12:10:29;29.60;86.70
30648;DHT22;17683;53.360;9.736;2022-07-24T12:12:56;29.60;86.70
30648;DHT22;17683;53.360;9.736;2022-07-24T12:15:23;29.60;87.30
30648;DHT22;17683;53.360;9.736;2022-07-24T12:18:00;29.70;86.60
30648;DHT22;17683;53.360;9.736;2022-07-24T12:20:46;29.80;87.20
30648;DHT22;17683;53.360;9.736;2022-07-24T12:23:14;30.00;84.80
30648;DHT22;17683;53.360;9.736;2022-07-24T12:25:41;30.10;85.80
30648;DHT22;17683;53.360;9.736;2022-07-24T12:28:11;30.00;83.90
30648;DHT22;17683;53.360;9.736;2022-07-24T12:30:38;29.90;83.80
30648;DHT22;17683;53.360;9.736;2022-07-24T12:33:07;29.80;85.20
30648;DHT22;17683;53.360;9.736;2022-07-24T12:38:31;29.80;85.00
30648;DHT22;17683;53.360;9.736;2022-07-24T12:41:08;29.80;85.60
30648;DHT22;17683;53.360;9.736;2022-07-24T12:43:56;29.80;86.20
30648;DHT22;17683;53.360;9.736;2022-07-24T12:46:29;29.80;85.10
30648;DHT22;17683;53.360;9.736;2022-07-24T12:51:27;29.90;84.40
30648;DHT22;17683;53.360;9.736;2022-07-24T12:54:08;30.00;83.80
30648;DHT22;17683;53.360;9.736;2022-07-24T12:56:34;30.00;84.60
30648;DHT22;17683;53.360;9.736;2022-07-24T12:59:01;30.00;82.70
30648;DHT22;17683;53.360;9.736;2022-07-24T13:01:43;29.90;84.00
30648;DHT22;17683;53.360;9.736;2022-07-24T13:04:09;29.80;84.00
30648;DHT22;17683;53.360;9.736;2022-07-24T13:06:41;29.70;83.70
30648;DHT22;17683;53.360;9.736;2022-07-24T13:09:10;29.70;83.60
30648;DHT22;17683;53.360;9.736;2022-07-24T13:11:37;29.70;84.70
30648;DHT22;17683;53.360;9.736;2022-07-24T13:14:03;29.70;84.40
30648;DHT22;17683;53.360;9.736;2022-07-24T13:16:30;29.80;83.80
30648;DHT22;17683;53.360;9.736;2022-07-24T13:18:57;30.00;81.80
30648;DHT22;17683;53.360;9.736;2022-07-24T13:21:23;30.00;83.90
30648;DHT22;17683;53.360;9.736;2022-07-24T13:23:49;30.00;81.60
30648;DHT22;17683;53.360;9.736;2022-07-24T13:26:15;30.00;82.70
30648;DHT22;17683;53.360;9.736;2022-07-24T13:28:41;30.00;81.40
30648;DHT22;17683;53.360;9.736;2022-07-24T13:31:06;29.80;81.50
30648;DHT22;17683;53.360;9.736;2022-07-24T13:33:32;29.60;83.10
30648;DHT22;17683;53.360;9.736;2022-07-24T13:35:59;29.70;83.50
30648;DHT22;17683;53.360;9.736;2022-07-24T13:38:25;29.80;83.30
30648;DHT22;17683;53.360;9.736;2022-07-24T13:40:51;29.90;82.60
30648;DHT22;17683;53.360;9.736;2022-07-24T13:43:16;29.90;83.20
30648;DHT22;17683;53.360;9.736;2022-07-24T13:45:42;30.00;82.70
30648;DHT22;17683;53.360;9.736;2022-07-24T13:48:08;30.10;81.00
30648;DHT22;17683;53.360;9.736;2022-07-24T13:50:34;30.10;80.30
30648;DHT22;17683;53.360;9.736;2022-07-24T13:52:59;30.10;81.30
30648;DHT22;17683;53.360;9.736;2022-07-24T13:55:25;30.10;81.50
30648;DHT22;17683;53.360;9.736;2022-07-24T13:57:51;30.10;81.20
30648;DHT22;17683;53.360;9.736;2022-07-24T14:00:16;29.80;81.10
30648;DHT22;17683;53.360;9.736;2022-07-24T14:02:42;29.80;82.70
30648;DHT22;17683;53.360;9.736;2022-07-24T14:05:08;29.80;81.00
30648;DHT22;17683;53.360;9.736;2022-07-24T14:07:34;29.80;82.10
30648;DHT22;17683;53.360;9.736;2022-07-24T14:10:01;29.80;83.30
30648;DHT22;17683;53.360;9.736;2022-07-24T14:12:26;29.80;83.30
30648;DHT22;17683;53.360;9.736;2022-07-24T14:14:53;29.80;83.10
30648;DHT22;17683;53.360;9.736;2022-07-24T14:17:19;29.90;82.20
30648;DHT22;17683;53.360;9.736;2022-07-24T14:19:45;29.90;81.80
30648;DHT22;17683;53.360;9.736;2022-07-24T14:22:11;29.90;80.20
30648;DHT22;17683;53.360;9.736;2022-07-24T14:24:36;29.80;81.40
30648;DHT22;17683;53.360;9.736;2022-07-24T14:27:02;29.80;80.80
30648;DHT22;17683;53.360;9.736;2022-07-24T14:29:28;29.80;81.50
30648;DHT22;17683;53.360;9.736;2022-07-24T14:31:53;29.80;82.10
30648;DHT22;17683;53.360;9.736;2022-07-24T14:34:19;29.70;81.50
30648;DHT22;17683;53.360;9.736;2022-07-24T14:36:45;29.70;81.10
30648;DHT22;17683;53.360;9.736;2022-07-24T14:39:11;29.60;81.10
30648;DHT22;17683;53.360;9.736;2022-07-24T14:41:36;29.60;81.20
30648;DHT22;17683;53.360;9.736;2022-07-24T14:44:03;29.70;81.70
30648;DHT22;17683;53.360;9.736;2022-07-24T14:46:29;29.70;81.60
30648;DHT22;17683;53.360;9.736;2022-07-24T14:48:55;29.80;81.40
30648;DHT22;17683;53.360;9.736;2022-07-24T14:51:21;29.80;80.50
30648;DHT22;17683;53.360;9.736;2022-07-24T14:53:46;29.70;80.70
30648;DHT22;17683;53.360;9.736;2022-07-24T14:56:12;29.60;80.30
30648;DHT22;17683;53.360;9.736;2022-07-24T14:58:39;29.50;81.00
30648;DHT22;17683;53.360;9.736;2022-07-24T15:01:05;29.50;81.20
30648;DHT22;17683;53.360;9.736;2022-07-24T15:03:30;29.50;81.40
30648;DHT22;17683;53.360;9.736;2022-07-24T15:05:56;29.60;81.40
30648;DHT22;17683;53.360;9.736;2022-07-24T15:08:22;29.60;81.90
30648;DHT22;17683;53.360;9.736;2022-07-24T15:10:48;29.60;81.50
30648;DHT22;17683;53.360;9.736;2022-07-24T15:13:14;29.60;80.40
30648;DHT22;17683;53.360;9.736;2022-07-24T15:15:39;29.60;81.10
30648;DHT22;17683;53.360;9.736;2022-07-24T15:18:05;29.70;81.20
30648;DHT22;17683;53.360;9.736;2022-07-24T15:20:31;29.70;81.20
30648;DHT22;17683;53.360;9.736;2022-07-24T15:22:56;29.70;81.10
30648;DHT22;17683;53.360;9.736;2022-07-24T15:25:22;29.70;81.30
30648;DHT22;17683;53.360;9.736;2022-07-24T15:27:48;29.70;81.10
30648;DHT22;17683;53.360;9.736;2022-07-24T15:30:16;29.70;81.00
30648;DHT22;17683;53.360;9.736;2022-07-24T15:32:42;29.60;80.70
30648;DHT22;17683;53.360;9.736;2022-07-24T15:35:08;29.60;82.20
30648;DHT22;17683;53.360;9.736;2022-07-24T15:37:34;29.60;80.80
30648;DHT22;17683;53.360;9.736;2022-07-24T15:40:00;29.60;80.90
30648;DHT22;17683;53.360;9.736;2022-07-24T15:42:27;29.50;81.80
30648;DHT22;17683;53.360;9.736;2022-07-24T15:44:53;29.50;81.80
30648;DHT22;17683;53.360;9.736;2022-07-24T15:47:19;29.50;81.90
30648;DHT22;17683;53.360;9.736;2022-07-24T15:49:44;29.60;82.00
30648;DHT22;17683;53.360;9.736;2022-07-24T15:52:10;29.50;80.40
30648;DHT22;17683;53.360;9.736;2022-07-24T15:54:36;29.50;81.00
30648;DHT22;17683;53.360;9.736;2022-07-24T15:57:02;29.50;81.10
30648;DHT22;17683;53.360;9.736;2022-07-24T15:59:27;29.50;81.80
30648;DHT22;17683;53.360;9.736;2022-07-24T16:01:53;29.50;81.90
30648;DHT22;17683;53.360;9.736;2022-07-24T16:04:19;29.50;82.30
30648;DHT22;17683;53.360;9.736;2022-07-24T16:06:46;29.60;81.90
30648;DHT22;17683;53.360;9.736;2022-07-24T16:09:12;29.60;83.00
30648;DHT22;17683;53.360;9.736;2022-07-24T16:11:39;29.50;81.20
30648;DHT22;17683;53.360;9.736;2022-07-24T16:14:04;29.50;81.80
30648;DHT22;17683;53.360;9.736;2022-07-24T16:16:30;29.50;81.90